sensor_id;sensor_type;location;lat;lon;timestamp;temperature;humidity
57282;DHT22;43129;52.628;10.098;2023-12-28T00:02:04;8.10;99.90
57282;DHT22;43129;52.628;10.098;2023-12-28T00:04:30;8.10;99.90
57282;DHT22;43129;52.628;10.098;2023-12-28T00:06:56;8.10;99.90
57282;DHT22;43129;52.628;10.098;2023-12-28T00:09:21;8.10;99.90
57282;DHT22;43129;52.628;10.098;2023-12-28T00:11:47;8.10;99.90
57282;DHT22;43129;52.628;10.098;2023-12-28T00:14:13;8.20;99.90
57282;DHT22;43129;52.628;10.098;2023-12-28T00:16:41;8.30;99.90
57282;DHT22;43129;52.628;10.098;2023-12-28T00:19:09;8.20;99.90
57282;DHT22;43129;52.628;10.098;2023-12-28T00:21:35;8.30;99.90
57282;DHT22;43129;52.628;10.098;2023-12-28T00:24:01;8.30;99.90
57282;DHT22;43129;52.628;10.098;2023-12-28T00:26:29;8.30;99.90
57282;DHT22;43129;52.628;10.098;2023-12-28T00:28:54;8.40;99.90
57282;DHT22;43129;52.628;10.098;2023-12-28T00:31:23;8.40;99.90
57282;DHT22;43129;52.628;10.098;2023-12-28T00:33:48;8.40;99.90
57282;DHT22;43129;52.628;10.098;2023-12-28T00:36:15;8.50;99.90
57282;DHT22;43129;52.628;10.098;2023-12-28T00:38:42;8.60;99.90
57282;DHT22;43129;52.628;10.098;2023-12-28T00:41:07;8.60;99.90
57282;DHT22;43129;52.628;10.098;2023-12-28T00:43:35;8.80;99.90
57282;DHT22;43129;52.628;10.098;2023-12-28T00:46:03;8.80;99.90
57282;DHT22;43129;52.628;10.098;2023-12-28T00:48:29;8.80;99.90
57282;DHT22;43129;52.628;10.098;2023-12-28T00:50:55;8.80;99.90
57282;DHT22;43129;52.628;10.098;2023-12-28T00:53:20;8.90;99.90
57282;DHT22;43129;52.628;10.098;2023-12-28T00:55:48;8.90;99.90
57282;DHT22;43129;52.628;10.098;2023-12-28T00:58:14;8.90;99.90
57282;DHT22;43129;52.628;10.098;2023-12-28T01:00:42;8.90;99.90
57282;DHT22;43129;52.628;10.098;2023-12-28T01:03:07;8.80;99.90
57282;DHT22;43129;52.628;10.098;2023-12-28T01:05:33;8.80;99.90
57282;DHT22;43129;52.628;10.098;2023-12-28T01:07:59;8.60;99.90
57282;DHT22;43129;52.628;10.098;2023-12-28T01:10:24;8.30;99.90
57282;DHT22;43129;52.628;10.098;2023-12-28T01:12:52;8.10;99.90
57282;DHT22;43129;52.628;10.098;2023-12-28T01:15:20;7.80;99.90
57282;DHT22;43129;52.628;10.098;2023-12-28T01:17:46;7.70;99.90
57282;DHT22;43129;52.628;10.098;2023-12-28T01:20:12;7.60;99.90
57282;DHT22;43129;52.628;10.098;2023-12-28T01:22:37;7.50;99.90
57282;DHT22;43129;52.628;10.098;2023-12-28T01:25:04;7.50;99.90
57282;DHT22;43129;52.628;10.098;2023-12-28T01:27:29;7.50;99.90
57282;DHT22;43129;52.628;10.098;2023-12-28T01:29:55;7.60;99.90
57282;DHT22;43129;52.628;10.098;2023-12-28T01:32:21;7.60;99.90
57282;DHT22;43129;52.628;10.098;2023-12-28T01:34:48;7.70;99.90
57282;DHT22;43129;52.628;10.098;2023-12-28T01:37:16;7.80;99.90
57282;DHT22;43129;52.628;10.098;2023-12-28T01:39:42;7.80;99.90
57282;DHT22;43129;52.628;10.098;2023-12-28T01:42:08;7.80;99.90
57282;DHT22;43129;52.628;10.098;2023-12-28T01:44:33;7.90;99.90
57282;DHT22;43129;52.628;10.098;2023-12-28T01:47:02;7.80;99.90
57282;DHT22;43129;52.628;10.098;2023-12-28T01:49:28;7.90;99.90
57282;DHT22;43129;52.628;10.098;2023-12-28T01:51:53;7.90;99.90
57282;DHT22;43129;52.628;10.098;2023-12-28T01:54:19;7.90;99.90
57282;DHT22;43129;52.628;10.098;2023-12-28T01:56:45;8.00;99.90
57282;DHT22;43129;52.628;10.098;2023-12-28T01:59:11;8.00;99.90
57282;DHT22;43129;52.628;10.098;2023-12-28T02:01:38;8.00;99.90
57282;DHT22;43129;52.628;10.098;2023-12-28T02:04:04;7.90;99.90
57282;DHT22;43129;52.628;10.098;2023-12-28T02:06:30;8.00;99.90
57282;DHT22;43129;52.628;10.098;2023-12-28T02:08:55;8.00;99.90
57282;DHT22;43129;52.628;10.098;2023-12-28T02:11:21;8.00;99.90
57282;DHT22;43129;52.628;10.098;2023-12-28T02:13:47;8.00;99.90
57282;DHT22;43129;52.628;10.098;2023-12-28T02:16:17;7.90;99.90
57282;DHT22;43129;52.628;10.098;2023-12-28T02:18:50;8.00;99.90
57282;DHT22;43129;52.628;10.098;2023-12-28T02:21:18;8.10;99.90
57282;DHT22;43129;52.628;10.098;2023-12-28T02:23:50;8.10;99.90
57282;DHT22;43129;52.628;10.098;2023-12-28T02:26:16;8.20;99.90
57282;DHT22;43129;52.628;10.098;2023-12-28T02:28:43;8.30;99.90
57282;DHT22;43129;52.628;10.098;2023-12-28T02:31:21;8.40;99.90
57282;DHT22;43129;52.628;10.098;2023-12-28T02:33:56;8.40;99.90
57282;DHT22;43129;52.628;10.098;2023-12-28T02:36:27;8.40;99.90
57282;DHT22;43129;52.628;10.098;2023-12-28T02:38:56;8.50;99.90
57282;DHT22;43129;52.628;10.098;2023-12-28T02:41:25;8.50;99.90
57282;DHT22;43129;52.628;10.098;2023-12-28T02:43:51;8.50;99.90
57282;DHT22;43129;52.628;10.098;2023-12-28T02:46:19;8.60;99.90
57282;DHT22;43129;52.628;10.098;2023-12-28T02:48:44;8.60;99.90
57282;DHT22;43129;52.628;10.098;2023-12-28T02:51:10;8.60;99.90
57282;DHT22;43129;52.628;10.098;2023-12-28T02:53:36;8.60;99.90
57282;DHT22;43129;52.628;10.098;2023-12-28T02:56:04;8.60;99.90
57282;DHT22;43129;52.628;10.098;2023-12-28T02:58:29;8.70;99.90
57282;DHT22;43129;52.628;10.098;2023-12-28T03:00:55;8.70;99.90
57282;DHT22;43129;52.628;10.098;2023-12-28T03:03:23;8.70;99.90
57282;DHT22;43129;52.628;10.098;2023-12-28T03:05:48;8.70;99.90
57282;DHT22;43129;52.628;10.098;2023-12-28T03:08:14;8.70;99.90
57282;DHT22;43129;52.628;10.098;2023-12-28T03:10:39;8.80;99.90
57282;DHT22;43129;52.628;10.098;2023-12-28T03:13:05;8.80;99.90
57282;DHT22;43129;52.628;10.098;2023-12-28T03:15:32;8.80;99.90
57282;DHT22;43129;52.628;10.098;2023-12-28T03:18:00;8.80;99.90
57282;DHT22;43129;52.628;10.098;2023-12-28T03:20:26;8.70;99.90
57282;DHT22;43129;52.628;10.098;2023-12-28T03:22:51;8.80;99.90
57282;DHT22;43129;52.628;10.098;2023-12-28T03:25:17;8.80;99.90
57282;DHT22;43129;52.628;10.098;2023-12-28T03:27:43;8.80;99.90
57282;DHT22;43129;52.628;10.098;2023-12-28T03:30:09;8.80;99.90
57282;DHT22;43129;52.628;10.098;2023-12-28T03:32:34;8.80;99.90
57282;DHT22;43129;52.628;10.098;2023-12-28T03:35:01;8.80;99.90
57282;DHT22;43129;52.628;10.098;2023-12-28T03:37:26;8.80;99.90
57282;DHT22;43129;52.628;10.098;2023-12-28T03:39:52;8.90;99.90
57282;DHT22;43129;52.628;10.098;2023-12-28T03:42:17;8.90;99.90
57282;DHT22;43129;52.628;10.098;2023-12-28T03:44:43;8.80;99.90
57282;DHT22;43129;52.628;10.098;2023-12-28T03:47:09;8.90;99.90
57282;DHT22;43129;52.628;10.098;2023-12-28T03:49:35;8.90;99.90
57282;DHT22;43129;52.628;10.098;2023-12-28T03:52:03;8.90;99.90
57282;DHT22;43129;52.628;10.098;2023-12-28T03:54:28;8.90;99.90
57282;DHT22;43129;52.628;10.098;2023-12-28T03:56:54;8.90;99.90
57282;DHT22;43129;52.628;10.098;2023-12-28T03:59:20;8.90;99.90
57282;DHT22;43129;52.628;10.098;2023-12-28T04:01:48;8.80;99.90
57282;DHT22;43129;52.628;10.098;2023-12-28T04:04:16;8.80;99.90
57282;DHT22;43129;52.628;10.098;2023-12-28T04:06:44;8.80;99.90
57282;DHT22;43129;52.628;10.098;2023-12-28T04:09:13;8.90;99.90
57282;DHT22;43129;52.628;10.098;2023-12-28T04:11:39;8.90;99.90
57282;DHT22;43129;52.628;10.098;2023-12-28T04:14:04;9.00;99.90
57282;DHT22;43129;52.628;10.098;2023-12-28T04:16:30;9.10;99.90
57282;DHT22;43129;52.628;10.098;2023-12-28T04:18:57;9.10;99.90
57282;DHT22;43129;52.628;10.098;2023-12-28T04:21:22;9.00;99.90
57282;DHT22;43129;52.628;10.098;2023-12-28T04:23:48;9.00;99.90
57282;DHT22;43129;52.628;10.098;2023-12-28T04:26:14;9.00;99.90
57282;DHT22;43129;52.628;10.098;2023-12-28T04:28:42;8.90;99.90
57282;DHT22;43129;52.628;10.098;2023-12-28T04:31:07;9.00;99.90
57282;DHT22;43129;52.628;10.098;2023-12-28T04:33:33;9.00;99.90
57282;DHT22;43129;52.628;10.098;2023-12-28T04:36:03;9.00;99.90
57282;DHT22;43129;52.628;10.098;2023-12-28T04:38:29;9.00;99.90
57282;DHT22;43129;52.628;10.098;2023-12-28T04:40:58;9.00;99.90
57282;DHT22;43129;52.628;10.098;2023-12-28T04:43:26;9.00;99.90
57282;DHT22;43129;52.628;10.098;2023-12-28T04:45:52;9.00;99.90
57282;DHT22;43129;52.628;10.098;2023-12-28T04:48:17;9.00;99.90
57282;DHT22;43129;52.628;10.098;2023-12-28T04:50:51;9.20;99.90
57282;DHT22;43129;52.628;10.098;2023-12-28T04:53:18;9.10;99.90
57282;DHT22;43129;52.628;10.098;2023-12-28T04:55:43;9.10;99.90
57282;DHT22;43129;52.628;10.098;2023-12-28T04:58:11;9.10;99.90
57282;DHT22;43129;52.628;10.098;2023-12-28T05:00:39;9.10;99.90
57282;DHT22;43129;52.628;10.098;2023-12-28T05:03:08;9.20;99.90
57282;DHT22;43129;52.628;10.098;2023-12-28T05:05:35;9.20;99.90
57282;DHT22;43129;52.628;10.098;2023-12-28T05:08:01;9.20;99.90
57282;DHT22;43129;52.628;10.098;2023-12-28T05:10:29;9.20;99.90
57282;DHT22;43129;52.628;10.098;2023-12-28T05:12:54;9.10;99.90
57282;DHT22;43129;52.628;10.098;2023-12-28T05:15:20;9.10;99.90
57282;DHT22;43129;52.628;10.098;2023-12-28T05:17:46;9.10;99.90
57282;DHT22;43129;52.628;10.098;2023-12-28T05:20:16;9.10;99.90
57282;DHT22;43129;52.628;10.098;2023-12-28T05:22:43;9.10;99.90
57282;DHT22;43129;52.628;10.098;2023-12-28T05:25:09;9.20;99.90
57282;DHT22;43129;52.628;10.098;2023-12-28T05:27:35;9.10;99.90
57282;DHT22;43129;52.628;10.098;2023-12-28T05:30:00;9.10;99.90
57282;DHT22;43129;52.628;10.098;2023-12-28T05:32:26;9.10;99.90
57282;DHT22;43129;52.628;10.098;2023-12-28T05:34:51;9.20;99.90
57282;DHT22;43129;52.628;10.098;2023-12-28T05:37:17;9.20;99.90
57282;DHT22;43129;52.628;10.098;2023-12-28T05:39:45;9.00;99.90
57282;DHT22;43129;52.628;10.098;2023-12-28T05:42:11;9.10;99.90
57282;DHT22;43129;52.628;10.098;2023-12-28T05:44:39;9.20;99.90
57282;DHT22;43129;52.628;10.098;2023-12-28T05:47:04;9.20;99.90
57282;DHT22;43129;52.628;10.098;2023-12-28T05:49:30;9.20;99.90
57282;DHT22;43129;52.628;10.098;2023-12-28T05:51:58;9.30;99.90
57282;DHT22;43129;52.628;10.098;2023-12-28T05:54:26;9.30;99.90
57282;DHT22;43129;52.628;10.098;2023-12-28T05:56:52;9.30;99.90
57282;DHT22;43129;52.628;10.098;2023-12-28T05:59:17;9.30;99.90
57282;DHT22;43129;52.628;10.098;2023-12-28T06:01:46;9.30;99.90
57282;DHT22;43129;52.628;10.098;2023-12-28T06:04:15;9.30;99.90
57282;DHT22;43129;52.628;10.098;2023-12-28T06:06:40;9.30;99.90
57282;DHT22;43129;52.628;10.098;2023-12-28T06:09:06;9.30;99.90
57282;DHT22;43129;52.628;10.098;2023-12-28T06:11:36;9.40;99.90
57282;DHT22;43129;52.628;10.098;2023-12-28T06:14:02;9.20;99.90
57282;DHT22;43129;52.628;10.098;2023-12-28T06:16:30;9.30;99.90
57282;DHT22;43129;52.628;10.098;2023-12-28T06:18:58;9.30;99.90
57282;DHT22;43129;52.628;10.098;2023-12-28T06:21:24;9.30;99.90
57282;DHT22;43129;52.628;10.098;2023-12-28T06:23:49;9.30;99.90
57282;DHT22;43129;52.628;10.098;2023-12-28T06:26:17;9.30;99.90
57282;DHT22;43129;52.628;10.098;2023-12-28T06:28:43;9.30;99.90
57282;DHT22;43129;52.628;10.098;2023-12-28T06:31:09;9.30;99.90
57282;DHT22;43129;52.628;10.098;2023-12-28T06:33:34;9.20;99.90
57282;DHT22;43129;52.628;10.098;2023-12-28T06:36:05;9.20;99.90
57282;DHT22;43129;52.628;10.098;2023-12-28T06:38:31;9.20;99.90
57282;DHT22;43129;52.628;10.098;2023-12-28T06:40:57;9.30;99.90
57282;DHT22;43129;52.628;10.098;2023-12-28T06:43:27;9.20;99.90
57282;DHT22;43129;52.628;10.098;2023-12-28T06:45:52;9.20;99.90
57282;DHT22;43129;52.628;10.098;2023-12-28T06:48:18;9.20;99.90
57282;DHT22;43129;52.628;10.098;2023-12-28T06:50:46;9.30;99.90
57282;DHT22;43129;52.628;10.098;2023-12-28T06:53:12;9.30;99.90
57282;DHT22;43129;52.628;10.098;2023-12-28T06:55:37;9.30;99.90
57282;DHT22;43129;52.628;10.098;2023-12-28T06:58:03;9.30;99.90
57282;DHT22;43129;52.628;10.098;2023-12-28T07:00:29;9.40;99.90
57282;DHT22;43129;52.628;10.098;2023-12-28T07:02:54;9.30;99.90
57282;DHT22;43129;52.628;10.098;2023-12-28T07:05:20;9.40;99.90
57282;DHT22;43129;52.628;10.098;2023-12-28T07:07:51;9.40;99.90
57282;DHT22;43129;52.628;10.098;2023-12-28T07:10:16;9.50;99.90
57282;DHT22;43129;52.628;10.098;2023-12-28T07:12:42;9.50;99.90
57282;DHT22;43129;52.628;10.098;2023-12-28T07:15:08;9.40;99.90
57282;DHT22;43129;52.628;10.098;2023-12-28T07:17:39;9.50;99.90
57282;DHT22;43129;52.628;10.098;2023-12-28T07:20:06;9.50;99.90
57282;DHT22;43129;52.628;10.098;2023-12-28T07:22:34;9.60;99.90
57282;DHT22;43129;52.628;10.098;2023-12-28T07:25:00;9.70;99.90
57282;DHT22;43129;52.628;10.098;2023-12-28T07:27:25;9.70;99.90
57282;DHT22;43129;52.628;10.098;2023-12-28T07:29:53;9.70;99.90
57282;DHT22;43129;52.628;10.098;2023-12-28T07:32:21;9.70;99.90
57282;DHT22;43129;52.628;10.098;2023-12-28T07:34:52;9.80;99.90
57282;DHT22;43129;52.628;10.098;2023-12-28T07:37:18;9.80;99.90
57282;DHT22;43129;52.628;10.098;2023-12-28T07:39:51;9.90;99.90
57282;DHT22;43129;52.628;10.098;2023-12-28T07:42:20;9.90;99.90
57282;DHT22;43129;52.628;10.098;2023-12-28T07:44:45;9.90;99.90
57282;DHT22;43129;52.628;10.098;2023-12-28T07:47:13;10.00;99.90
57282;DHT22;43129;52.628;10.098;2023-12-28T07:49:42;10.10;99.90
57282;DHT22;43129;52.628;10.098;2023-12-28T07:52:10;10.00;99.90
57282;DHT22;43129;52.628;10.098;2023-12-28T07:54:40;10.10;99.90
57282;DHT22;43129;52.628;10.098;2023-12-28T07:57:08;10.10;99.90
57282;DHT22;43129;52.628;10.098;2023-12-28T07:59:33;10.00;99.90
57282;DHT22;43129;52.628;10.098;2023-12-28T08:02:01;10.10;99.90
57282;DHT22;43129;52.628;10.098;2023-12-28T08:04:27;10.10;99.90
57282;DHT22;43129;52.628;10.098;2023-12-28T08:06:58;10.10;99.90
57282;DHT22;43129;52.628;10.098;2023-12-28T08:09:23;10.10;99.90
57282;DHT22;43129;52.628;10.098;2023-12-28T08:11:49;10.10;99.90
57282;DHT22;43129;52.628;10.098;2023-12-28T08:14:15;10.20;99.90
57282;DHT22;43129;52.628;10.098;2023-12-28T08:16:40;10.20;99.90
57282;DHT22;43129;52.628;10.098;2023-12-28T08:19:06;10.20;99.90
57282;DHT22;43129;52.628;10.098;2023-12-28T08:21:36;10.20;99.90
57282;DHT22;43129;52.628;10.098;2023-12-28T08:24:02;10.10;99.90
57282;DHT22;43129;52.628;10.098;2023-12-28T08:26:32;10.20;99.90
57282;DHT22;43129;52.628;10.098;2023-12-28T08:29:01;10.20;99.90
57282;DHT22;43129;52.628;10.098;2023-12-28T08:31:26;10.10;99.90
57282;DHT22;43129;52.628;10.098;2023-12-28T08:33:52;10.20;99.90
57282;DHT22;43129;52.628;10.098;2023-12-28T08:36:18;10.20;99.90
57282;DHT22;43129;52.628;10.098;2023-12-28T08:38:44;10.20;99.90
57282;DHT22;43129;52.628;10.098;2023-12-28T08:41:20;10.20;99.90
57282;DHT22;43129;52.628;10.098;2023-12-28T08:43:46;10.30;99.90
57282;DHT22;43129;52.628;10.098;2023-12-28T08:46:15;10.30;99.90
57282;DHT22;43129;52.628;10.098;2023-12-28T08:48:43;10.40;99.90
57282;DHT22;43129;52.628;10.098;2023-12-28T08:51:10;10.40;99.90
57282;DHT22;43129;52.628;10.098;2023-12-28T08:53:36;10.30;99.90
57282;DHT22;43129;52.628;10.098;2023-12-28T08:56:25;10.30;99.90
57282;DHT22;43129;52.628;10.098;2023-12-28T08:58:55;10.30;99.90
57282;DHT22;43129;52.628;10.098;2023-12-28T09:01:23;10.30;99.90
57282;DHT22;43129;52.628;10.098;2023-12-28T09:03:55;10.30;99.90
57282;DHT22;43129;52.628;10.098;2023-12-28T09:06:23;10.30;99.90
57282;DHT22;43129;52.628;10.098;2023-12-28T09:08:52;10.30;99.90
57282;DHT22;43129;52.628;10.098;2023-12-28T09:11:18;10.30;99.90
57282;DHT22;43129;52.628;10.098;2023-12-28T09:13:46;10.30;99.90
57282;DHT22;43129;52.628;10.098;2023-12-28T09:16:13;10.30;99.90
57282;DHT22;43129;52.628;10.098;2023-12-28T09:18:39;10.30;99.90
57282;DHT22;43129;52.628;10.098;2023-12-28T09:21:06;10.30;99.90
57282;DHT22;43129;52.628;10.098;2023-12-28T09:23:33;10.40;99.90
57282;DHT22;43129;52.628;10.098;2023-12-28T09:26:05;10.40;99.90
57282;DHT22;43129;52.628;10.098;2023-12-28T09:28:32;10.50;99.90
57282;DHT22;43129;52.628;10.098;2023-12-28T09:31:01;10.50;99.90
57282;DHT22;43129;52.628;10.098;2023-12-28T09:33:31;10.60;99.90
57282;DHT22;43129;52.628;10.098;2023-12-28T09:35:57;10.70;99.90
57282;DHT22;43129;52.628;10.098;2023-12-28T09:38:23;10.70;99.90
57282;DHT22;43129;52.628;10.098;2023-12-28T09:40:55;10.70;99.90
57282;DHT22;43129;52.628;10.098;2023-12-28T09:43:26;10.70;99.90
57282;DHT22;43129;52.628;10.098;2023-12-28T09:46:06;10.70;99.90
57282;DHT22;43129;52.628;10.098;2023-12-28T09:48:33;10.70;99.90
57282;DHT22;43129;52.628;10.098;2023-12-28T09:51:00;10.70;99.90
57282;DHT22;43129;52.628;10.098;2023-12-28T09:53:26;10.60;99.90
57282;DHT22;43129;52.628;10.098;2023-12-28T09:55:52;10.60;99.90
57282;DHT22;43129;52.628;10.098;2023-12-28T09:58:19;10.60;99.90
57282;DHT22;43129;52.628;10.098;2023-12-28T10:00:48;10.50;99.90
57282;DHT22;43129;52.628;10.098;2023-12-28T10:03:15;10.60;99.90
57282;DHT22;43129;52.628;10.098;2023-12-28T10:05:42;10.60;99.90
57282;DHT22;43129;52.628;10.098;2023-12-28T10:08:08;10.70;99.90
57282;DHT22;43129;52.628;10.098;2023-12-28T10:10:36;10.70;99.90
57282;DHT22;43129;52.628;10.098;2023-12-28T10:13:01;10.70;99.90
57282;DHT22;43129;52.628;10.098;2023-12-28T10:15:28;10.70;99.90
57282;DHT22;43129;52.628;10.098;2023-12-28T10:17:55;10.70;99.90
57282;DHT22;43129;52.628;10.098;2023-12-28T10:20:21;10.70;99.90
57282;DHT22;43129;52.628;10.098;2023-12-28T10:22:47;10.80;99.90
57282;DHT22;43129;52.628;10.098;2023-12-28T10:25:13;11.00;99.90
57282;DHT22;43129;52.628;10.098;2023-12-28T10:27:39;11.20;99.90
57282;DHT22;43129;52.628;10.098;2023-12-28T10:30:11;11.40;99.90
57282;DHT22;43129;52.628;10.098;2023-12-28T10:32:40;11.60;99.90
57282;DHT22;43129;52.628;10.098;2023-12-28T10:35:11;12.10;99.90
57282;DHT22;43129;52.628;10.098;2023-12-28T10:37:42;12.70;99.90
57282;DHT22;43129;52.628;10.098;2023-12-28T10:40:14;13.10;99.90
57282;DHT22;43129;52.628;10.098;2023-12-28T10:42:46;13.40;99.90
57282;DHT22;43129;52.628;10.098;2023-12-28T10:45:16;12.80;99.90
57282;DHT22;43129;52.628;10.098;2023-12-28T10:48:09;13.00;99.90
57282;DHT22;43129;52.628;10.098;2023-12-28T10:50:42;13.10;99.90
57282;DHT22;43129;52.628;10.098;2023-12-28T10:56:03;13.70;99.90
57282;DHT22;43129;52.628;10.098;2023-12-28T11:01:32;12.50;99.90
57282;DHT22;43129;52.628;10.098;2023-12-28T11:06:46;12.00;99.90
57282;DHT22;43129;52.628;10.098;2023-12-28T11:09:18;11.90;99.90
57282;DHT22;43129;52.628;10.098;2023-12-28T11:11:46;11.70;99.90
57282;DHT22;43129;52.628;10.098;2023-12-28T11:14:17;11.60;99.90
57282;DHT22;43129;52.628;10.098;2023-12-28T11:16:43;11.60;99.90
57282;DHT22;43129;52.628;10.098;2023-12-28T11:19:14;11.50;99.90
57282;DHT22;43129;52.628;10.098;2023-12-28T11:21:40;11.40;99.90
57282;DHT22;43129;52.628;10.098;2023-12-28T11:24:07;11.40;99.90
57282;DHT22;43129;52.628;10.098;2023-12-28T11:26:32;11.30;99.90
57282;DHT22;43129;52.628;10.098;2023-12-28T11:29:04;11.30;99.90
57282;DHT22;43129;52.628;10.098;2023-12-28T11:31:33;11.30;99.90
57282;DHT22;43129;52.628;10.098;2023-12-28T11:34:04;11.30;99.90
57282;DHT22;43129;52.628;10.098;2023-12-28T11:36:38;11.30;99.90
57282;DHT22;43129;52.628;10.098;2023-12-28T11:39:06;11.30;99.90
57282;DHT22;43129;52.628;10.098;2023-12-28T11:41:36;11.30;99.90
57282;DHT22;43129;52.628;10.098;2023-12-28T11:44:05;11.40;99.90
57282;DHT22;43129;52.628;10.098;2023-12-28T11:46:32;11.40;99.90
57282;DHT22;43129;52.628;10.098;2023-12-28T11:49:09;11.50;99.90
57282;DHT22;43129;52.628;10.098;2023-12-28T11:51:40;11.50;99.90
57282;DHT22;43129;52.628;10.098;2023-12-28T11:54:08;11.60;99.90
57282;DHT22;43129;52.628;10.098;2023-12-28T11:56:34;11.70;99.90
57282;DHT22;43129;52.628;10.098;2023-12-28T11:59:00;11.70;99.90
57282;DHT22;43129;52.628;10.098;2023-12-28T12:01:25;11.80;99.90
57282;DHT22;43129;52.628;10.098;2023-12-28T12:03:51;11.70;99.90
57282;DHT22;43129;52.628;10.098;2023-12-28T12:06:19;11.60;99.90
57282;DHT22;43129;52.628;10.098;2023-12-28T12:08:46;11.60;99.90
57282;DHT22;43129;52.628;10.098;2023-12-28T12:11:12;11.50;99.90
57282;DHT22;43129;52.628;10.098;2023-12-28T12:13:38;11.60;99.90
57282;DHT22;43129;52.628;10.098;2023-12-28T12:16:06;11.60;99.90
57282;DHT22;43129;52.628;10.098;2023-12-28T12:18:33;11.60;99.90
57282;DHT22;43129;52.628;10.098;2023-12-28T12:20:58;11.60;99.90
57282;DHT22;43129;52.628;10.098;2023-12-28T12:23:27;11.50;99.90
57282;DHT22;43129;52.628;10.098;2023-12-28T12:25:55;11.50;99.90
57282;DHT22;43129;52.628;10.098;2023-12-28T12:28:23;11.50;99.90
57282;DHT22;43129;52.628;10.098;2023-12-28T12:30:55;11.50;99.90
57282;DHT22;43129;52.628;10.098;2023-12-28T12:33:24;11.60;99.90
57282;DHT22;43129;52.628;10.098;2023-12-28T12:35:53;11.70;99.90
57282;DHT22;43129;52.628;10.098;2023-12-28T12:38:19;11.90;99.90
57282;DHT22;43129;52.628;10.098;2023-12-28T12:40:44;12.20;99.90
57282;DHT22;43129;52.628;10.098;2023-12-28T12:43:10;12.30;99.90
57282;DHT22;43129;52.628;10.098;2023-12-28T12:45:36;12.10;99.90
57282;DHT22;43129;52.628;10.098;2023-12-28T12:48:07;11.90;99.90
57282;DHT22;43129;52.628;10.098;2023-12-28T12:50:33;11.90;99.90
57282;DHT22;43129;52.628;10.098;2023-12-28T12:52:59;11.80;99.90
57282;DHT22;43129;52.628;10.098;2023-12-28T12:55:30;11.80;99.90
57282;DHT22;43129;52.628;10.098;2023-12-28T12:57:56;11.70;99.90
57282;DHT22;43129;52.628;10.098;2023-12-28T13:00:22;11.70;99.90
57282;DHT22;43129;52.628;10.098;2023-12-28T13:02:50;11.70;99.90
57282;DHT22;43129;52.628;10.098;2023-12-28T13:05:19;11.60;99.90
57282;DHT22;43129;52.628;10.098;2023-12-28T13:07:48;11.60;99.90
57282;DHT22;43129;52.628;10.098;2023-12-28T13:10:18;11.60;99.90
57282;DHT22;43129;52.628;10.098;2023-12-28T13:12:46;11.50;99.90
57282;DHT22;43129;52.628;10.098;2023-12-28T13:15:14;11.60;99.90
57282;DHT22;43129;52.628;10.098;2023-12-28T13:17:40;11.50;99.90
57282;DHT22;43129;52.628;10.098;2023-12-28T13:20:06;11.50;99.90
57282;DHT22;43129;52.628;10.098;2023-12-28T13:22:35;11.50;99.90
57282;DHT22;43129;52.628;10.098;2023-12-28T13:25:00;11.50;99.90
57282;DHT22;43129;52.628;10.098;2023-12-28T13:27:29;11.50;99.90
57282;DHT22;43129;52.628;10.098;2023-12-28T13:29:56;11.40;99.90
57282;DHT22;43129;52.628;10.098;2023-12-28T13:32:22;11.50;99.90
57282;DHT22;43129;52.628;10.098;2023-12-28T13:34:49;11.50;99.90
57282;DHT22;43129;52.628;10.098;2023-12-28T13:37:16;11.50;99.90
57282;DHT22;43129;52.628;10.098;2023-12-28T13:39:44;11.50;99.90
57282;DHT22;43129;52.628;10.098;2023-12-28T13:42:12;11.50;99.90
57282;DHT22;43129;52.628;10.098;2023-12-28T13:44:40;11.40;99.90
57282;DHT22;43129;52.628;10.098;2023-12-28T13:47:07;11.40;99.90
57282;DHT22;43129;52.628;10.098;2023-12-28T13:49:37;11.40;99.90
57282;DHT22;43129;52.628;10.098;2023-12-28T13:52:07;11.40;99.90
57282;DHT22;43129;52.628;10.098;2023-12-28T13:54:35;11.50;99.90
57282;DHT22;43129;52.628;10.098;2023-12-28T13:57:01;11.50;99.90
57282;DHT22;43129;52.628;10.098;2023-12-28T13:59:26;11.40;99.90
57282;DHT22;43129;52.628;10.098;2023-12-28T14:01:52;11.40;99.90
57282;DHT22;43129;52.628;10.098;2023-12-28T14:04:20;11.40;99.90
57282;DHT22;43129;52.628;10.098;2023-12-28T14:06:46;11.30;99.90
57282;DHT22;43129;52.628;10.098;2023-12-28T14:09:16;11.30;99.90
57282;DHT22;43129;52.628;10.098;2023-12-28T14:11:46;11.40;99.90
57282;DHT22;43129;52.628;10.098;2023-12-28T14:14:12;11.30;99.90
57282;DHT22;43129;52.628;10.098;2023-12-28T14:16:39;11.40;99.90
57282;DHT22;43129;52.628;10.098;2023-12-28T14:19:04;11.30;99.90
57282;DHT22;43129;52.628;10.098;2023-12-28T14:21:38;11.30;99.90
57282;DHT22;43129;52.628;10.098;2023-12-28T14:24:09;11.30;99.90
57282;DHT22;43129;52.628;10.098;2023-12-28T14:26:43;11.30;99.90
57282;DHT22;43129;52.628;10.098;2023-12-28T14:29:10;11.20;99.90
57282;DHT22;43129;52.628;10.098;2023-12-28T14:31:36;11.30;99.90
57282;DHT22;43129;52.628;10.098;2023-12-28T14:34:04;11.30;99.90
57282;DHT22;43129;52.628;10.098;2023-12-28T14:36:33;11.20;99.90
57282;DHT22;43129;52.628;10.098;2023-12-28T14:39:00;11.20;99.90
57282;DHT22;43129;52.628;10.098;2023-12-28T14:41:26;11.20;99.90
57282;DHT22;43129;52.628;10.098;2023-12-28T14:43:55;11.10;99.90
57282;DHT22;43129;52.628;10.098;2023-12-28T14:46:21;11.10;99.90
57282;DHT22;43129;52.628;10.098;2023-12-28T14:48:47;11.10;99.90
57282;DHT22;43129;52.628;10.098;2023-12-28T14:51:12;11.20;99.90
57282;DHT22;43129;52.628;10.098;2023-12-28T14:53:38;11.20;99.90
57282;DHT22;43129;52.628;10.098;2023-12-28T14:56:04;11.20;99.90
57282;DHT22;43129;52.628;10.098;2023-12-28T14:58:30;11.10;99.90
57282;DHT22;43129;52.628;10.098;2023-12-28T15:00:55;11.20;99.90
57282;DHT22;43129;52.628;10.098;2023-12-28T15:03:22;11.10;99.90
57282;DHT22;43129;52.628;10.098;2023-12-28T15:05:48;11.20;99.90
57282;DHT22;43129;52.628;10.098;2023-12-28T15:08:16;11.20;99.90
57282;DHT22;43129;52.628;10.098;2023-12-28T15:10:41;11.20;99.90
57282;DHT22;43129;52.628;10.098;2023-12-28T15:13:08;11.20;99.90
57282;DHT22;43129;52.628;10.098;2023-12-28T15:15:34;11.10;99.90
57282;DHT22;43129;52.628;10.098;2023-12-28T15:18:00;11.20;99.90
57282;DHT22;43129;52.628;10.098;2023-12-28T15:20:25;11.20;99.90
57282;DHT22;43129;52.628;10.098;2023-12-28T15:22:52;11.20;99.90
57282;DHT22;43129;52.628;10.098;2023-12-28T15:25:21;11.10;99.90
57282;DHT22;43129;52.628;10.098;2023-12-28T15:27:47;11.10;99.90
57282;DHT22;43129;52.628;10.098;2023-12-28T15:30:13;11.10;99.90
57282;DHT22;43129;52.628;10.098;2023-12-28T15:32:42;11.10;99.90